sensor_id;sensor_type;location;lat;lon;timestamp;temperature;humidity
1259;DHT22;619;51.472;6.628;2023-12-28T00:02:08;17.40;73.10
1259;DHT22;619;51.472;6.628;2023-12-28T00:04:36;17.50;73.10
1259;DHT22;619;51.472;6.628;2023-12-28T00:07:02;17.50;73.20
1259;DHT22;619;51.472;6.628;2023-12-28T00:09:28;17.50;73.40
1259;DHT22;619;51.472;6.628;2023-12-28T00:11:56;17.60;73.60
1259;DHT22;619;51.472;6.628;2023-12-28T00:14:24;17.60;73.60
1259;DHT22;619;51.472;6.628;2023-12-28T00:16:50;17.60;73.70
1259;DHT22;619;51.472;6.628;2023-12-28T00:19:20;17.70;73.80
1259;DHT22;619;51.472;6.628;2023-12-28T00:21:48;17.70;74.00
1259;DHT22;619;51.472;6.628;2023-12-28T00:24:16;17.70;74.00
1259;DHT22;619;51.472;6.628;2023-12-28T00:26:42;17.70;74.10
1259;DHT22;619;51.472;6.628;2023-12-28T00:29:07;17.70;74.30
1259;DHT22;619;51.472;6.628;2023-12-28T00:31:35;17.70;74.30
1259;DHT22;619;51.472;6.628;2023-12-28T00:34:03;17.80;74.50
1259;DHT22;619;51.472;6.628;2023-12-28T00:36:31;17.70;74.40
1259;DHT22;619;51.472;6.628;2023-12-28T00:38:57;17.60;75.30
1259;DHT22;619;51.472;6.628;2023-12-28T00:41:25;17.60;74.70
1259;DHT22;619;51.472;6.628;2023-12-28T00:43:53;17.60;74.70
1259;DHT22;619;51.472;6.628;2023-12-28T00:46:21;17.60;74.80
1259;DHT22;619;51.472;6.628;2023-12-28T00:48:49;17.50;74.70
1259;DHT22;619;51.472;6.628;2023-12-28T00:51:15;17.50;74.80
1259;DHT22;619;51.472;6.628;2023-12-28T00:53:43;17.50;75.50
1259;DHT22;619;51.472;6.628;2023-12-28T00:56:13;17.50;74.80
1259;DHT22;619;51.472;6.628;2023-12-28T00:58:39;17.50;75.40
1259;DHT22;619;51.472;6.628;2023-12-28T01:01:08;17.50;74.70
1259;DHT22;619;51.472;6.628;2023-12-28T01:03:34;17.40;74.60
1259;DHT22;619;51.472;6.628;2023-12-28T01:05:59;17.40;74.60
1259;DHT22;619;51.472;6.628;2023-12-28T01:08:27;17.40;74.60
1259;DHT22;619;51.472;6.628;2023-12-28T01:10:56;17.40;74.60
1259;DHT22;619;51.472;6.628;2023-12-28T01:13:21;17.30;74.60
1259;DHT22;619;51.472;6.628;2023-12-28T01:15:47;17.30;74.80
1259;DHT22;619;51.472;6.628;2023-12-28T01:18:15;17.30;74.90
1259;DHT22;619;51.472;6.628;2023-12-28T01:20:43;17.30;74.90
1259;DHT22;619;51.472;6.628;2023-12-28T01:23:08;17.30;74.90
1259;DHT22;619;51.472;6.628;2023-12-28T01:25:36;17.30;75.10
1259;DHT22;619;51.472;6.628;2023-12-28T01:28:02;17.30;75.10
1259;DHT22;619;51.472;6.628;2023-12-28T01:30:28;17.30;75.20
1259;DHT22;619;51.472;6.628;2023-12-28T01:32:54;17.30;75.40
1259;DHT22;619;51.472;6.628;2023-12-28T01:35:21;17.30;75.50
1259;DHT22;619;51.472;6.628;2023-12-28T01:37:52;17.30;75.60
1259;DHT22;619;51.472;6.628;2023-12-28T01:40:20;17.30;75.50
1259;DHT22;619;51.472;6.628;2023-12-28T01:42:45;17.40;75.60
1259;DHT22;619;51.472;6.628;2023-12-28T01:45:13;17.40;75.70
1259;DHT22;619;51.472;6.628;2023-12-28T01:47:39;17.40;75.70
1259;DHT22;619;51.472;6.628;2023-12-28T01:50:07;17.40;75.90
1259;DHT22;619;51.472;6.628;2023-12-28T01:52:33;17.40;76.00
1259;DHT22;619;51.472;6.628;2023-12-28T01:55:00;17.50;76.20
1259;DHT22;619;51.472;6.628;2023-12-28T01:57:25;17.50;76.20
1259;DHT22;619;51.472;6.628;2023-12-28T01:59:52;17.50;77.10
1259;DHT22;619;51.472;6.628;2023-12-28T02:02:18;17.50;76.40
1259;DHT22;619;51.472;6.628;2023-12-28T02:04:46;17.50;76.60
1259;DHT22;619;51.472;6.628;2023-12-28T02:07:17;17.50;76.70
1259;DHT22;619;51.472;6.628;2023-12-28T02:09:46;17.50;76.70
1259;DHT22;619;51.472;6.628;2023-12-28T02:12:14;17.50;76.90
1259;DHT22;619;51.472;6.628;2023-12-28T02:14:42;17.60;77.00
1259;DHT22;619;51.472;6.628;2023-12-28T02:19:53;17.60;76.90
1259;DHT22;619;51.472;6.628;2023-12-28T02:22:22;17.70;77.10
1259;DHT22;619;51.472;6.628;2023-12-28T02:27:43;17.70;77.30
1259;DHT22;619;51.472;6.628;2023-12-28T02:30:17;17.70;77.40
1259;DHT22;619;51.472;6.628;2023-12-28T02:35:23;17.70;77.40
1259;DHT22;619;51.472;6.628;2023-12-28T02:37:53;17.70;77.50
1259;DHT22;619;51.472;6.628;2023-12-28T02:40:21;17.70;78.30
1259;DHT22;619;51.472;6.628;2023-12-28T02:42:47;17.70;77.40
1259;DHT22;619;51.472;6.628;2023-12-28T02:45:13;17.70;77.50
1259;DHT22;619;51.472;6.628;2023-12-28T02:47:39;17.80;77.60
1259;DHT22;619;51.472;6.628;2023-12-28T02:50:07;17.80;77.50
1259;DHT22;619;51.472;6.628;2023-12-28T02:52:33;17.80;77.50
1259;DHT22;619;51.472;6.628;2023-12-28T02:55:06;17.80;77.40
1259;DHT22;619;51.472;6.628;2023-12-28T02:57:34;17.80;77.50
1259;DHT22;619;51.472;6.628;2023-12-28T03:00:06;17.90;77.50
1259;DHT22;619;51.472;6.628;2023-12-28T03:02:36;17.90;77.40
1259;DHT22;619;51.472;6.628;2023-12-28T03:05:05;17.90;77.30
1259;DHT22;619;51.472;6.628;2023-12-28T03:07:36;17.90;77.30
1259;DHT22;619;51.472;6.628;2023-12-28T03:10:06;17.90;77.20
1259;DHT22;619;51.472;6.628;2023-12-28T03:12:32;18.00;77.30
1259;DHT22;619;51.472;6.628;2023-12-28T03:15:00;18.00;77.20
1259;DHT22;619;51.472;6.628;2023-12-28T03:17:25;18.00;77.20
1259;DHT22;619;51.472;6.628;2023-12-28T03:19:56;18.00;77.10
1259;DHT22;619;51.472;6.628;2023-12-28T03:22:23;18.00;77.00
1259;DHT22;619;51.472;6.628;2023-12-28T03:24:49;18.00;76.90
1259;DHT22;619;51.472;6.628;2023-12-28T03:27:17;18.10;77.00
1259;DHT22;619;51.472;6.628;2023-12-28T03:29:45;18.10;77.70
1259;DHT22;619;51.472;6.628;2023-12-28T03:32:15;18.00;76.90
1259;DHT22;619;51.472;6.628;2023-12-28T03:34:41;18.10;77.00
1259;DHT22;619;51.472;6.628;2023-12-28T03:37:08;18.00;77.00
1259;DHT22;619;51.472;6.628;2023-12-28T03:39:36;17.90;77.30
1259;DHT22;619;51.472;6.628;2023-12-28T03:42:04;17.80;77.20
1259;DHT22;619;51.472;6.628;2023-12-28T03:44:30;17.80;77.30
1259;DHT22;619;51.472;6.628;2023-12-28T03:46:56;17.80;77.40
1259;DHT22;619;51.472;6.628;2023-12-28T03:49:21;17.70;77.40
1259;DHT22;619;51.472;6.628;2023-12-28T03:51:52;17.70;77.60
1259;DHT22;619;51.472;6.628;2023-12-28T03:54:18;17.70;77.60
1259;DHT22;619;51.472;6.628;2023-12-28T03:56:45;17.70;77.70
1259;DHT22;619;51.472;6.628;2023-12-28T03:59:13;17.70;78.40
1259;DHT22;619;51.472;6.628;2023-12-28T04:01:45;17.80;77.70
1259;DHT22;619;51.472;6.628;2023-12-28T04:04:13;17.70;77.70
1259;DHT22;619;51.472;6.628;2023-12-28T04:06:41;17.70;77.90
1259;DHT22;619;51.472;6.628;2023-12-28T04:09:11;17.70;77.90
1259;DHT22;619;51.472;6.628;2023-12-28T04:11:39;17.70;77.90
1259;DHT22;619;51.472;6.628;2023-12-28T04:14:09;17.70;78.00
1259;DHT22;619;51.472;6.628;2023-12-28T04:16:35;17.70;78.00
1259;DHT22;619;51.472;6.628;2023-12-28T04:19:05;17.70;78.00
1259;DHT22;619;51.472;6.628;2023-12-28T04:21:32;17.70;77.90
1259;DHT22;619;51.472;6.628;2023-12-28T04:24:03;17.70;77.90
1259;DHT22;619;51.472;6.628;2023-12-28T04:26:28;17.80;78.00
1259;DHT22;619;51.472;6.628;2023-12-28T04:28:55;17.70;77.80
1259;DHT22;619;51.472;6.628;2023-12-28T04:31:23;17.70;77.90
1259;DHT22;619;51.472;6.628;2023-12-28T04:33:54;17.80;77.90
1259;DHT22;619;51.472;6.628;2023-12-28T04:36:22;17.80;77.90
1259;DHT22;619;51.472;6.628;2023-12-28T04:38:50;17.70;77.80
1259;DHT22;619;51.472;6.628;2023-12-28T04:41:16;17.80;77.80
1259;DHT22;619;51.472;6.628;2023-12-28T04:43:44;17.70;77.70
1259;DHT22;619;51.472;6.628;2023-12-28T04:46:12;17.70;77.80
1259;DHT22;619;51.472;6.628;2023-12-28T04:48:37;17.70;77.80
1259;DHT22;619;51.472;6.628;2023-12-28T04:51:05;17.70;77.80
1259;DHT22;619;51.472;6.628;2023-12-28T04:53:33;17.70;77.80
1259;DHT22;619;51.472;6.628;2023-12-28T04:56:02;17.60;77.70
1259;DHT22;619;51.472;6.628;2023-12-28T04:58:28;17.60;77.80
1259;DHT22;619;51.472;6.628;2023-12-28T05:00:54;17.70;77.80
1259;DHT22;619;51.472;6.628;2023-12-28T05:03:21;17.70;77.70
1259;DHT22;619;51.472;6.628;2023-12-28T05:05:49;17.70;77.70
1259;DHT22;619;51.472;6.628;2023-12-28T05:08:15;17.70;77.60
1259;DHT22;619;51.472;6.628;2023-12-28T05:10:41;17.70;77.50
1259;DHT22;619;51.472;6.628;2023-12-28T05:13:09;17.70;77.40
1259;DHT22;619;51.472;6.628;2023-12-28T05:15:37;17.70;77.50
1259;DHT22;619;51.472;6.628;2023-12-28T05:18:05;17.70;77.40
1259;DHT22;619;51.472;6.628;2023-12-28T05:20:34;17.80;77.40
1259;DHT22;619;51.472;6.628;2023-12-28T05:22:59;17.80;77.40
1259;DHT22;619;51.472;6.628;2023-12-28T05:25:25;17.80;77.30
1259;DHT22;619;51.472;6.628;2023-12-28T05:27:53;17.80;78.00
1259;DHT22;619;51.472;6.628;2023-12-28T05:30:23;17.80;77.20
1259;DHT22;619;51.472;6.628;2023-12-28T05:32:49;17.90;77.30
1259;DHT22;619;51.472;6.628;2023-12-28T05:35:17;17.80;77.10
1259;DHT22;619;51.472;6.628;2023-12-28T05:37:42;17.90;77.10
1259;DHT22;619;51.472;6.628;2023-12-28T05:40:11;17.90;76.90
1259;DHT22;619;51.472;6.628;2023-12-28T05:42:39;17.90;76.90
1259;DHT22;619;51.472;6.628;2023-12-28T05:45:07;17.80;76.70
1259;DHT22;619;51.472;6.628;2023-12-28T05:47:37;17.80;76.60
1259;DHT22;619;51.472;6.628;2023-12-28T05:50:08;17.80;76.70
1259;DHT22;619;51.472;6.628;2023-12-28T05:52:34;17.80;76.60
1259;DHT22;619;51.472;6.628;2023-12-28T05:55:04;17.80;76.60
1259;DHT22;619;51.472;6.628;2023-12-28T05:57:32;17.80;76.40
1259;DHT22;619;51.472;6.628;2023-12-28T05:59:58;17.80;76.30
1259;DHT22;619;51.472;6.628;2023-12-28T06:02:26;17.90;76.40
1259;DHT22;619;51.472;6.628;2023-12-28T06:04:54;17.80;76.20
1259;DHT22;619;51.472;6.628;2023-12-28T06:07:19;17.80;76.20
1259;DHT22;619;51.472;6.628;2023-12-28T06:09:47;17.80;76.10
1259;DHT22;619;51.472;6.628;2023-12-28T06:12:13;17.90;76.00
1259;DHT22;619;51.472;6.628;2023-12-28T06:14:38;17.90;75.90
1259;DHT22;619;51.472;6.628;2023-12-28T06:17:07;17.90;75.90
1259;DHT22;619;51.472;6.628;2023-12-28T06:19:35;17.90;75.90
1259;DHT22;619;51.472;6.628;2023-12-28T06:22:00;17.90;75.80
1259;DHT22;619;51.472;6.628;2023-12-28T06:24:26;17.90;75.70
1259;DHT22;619;51.472;6.628;2023-12-28T06:26:52;17.80;75.70
1259;DHT22;619;51.472;6.628;2023-12-28T06:29:20;17.80;75.80
1259;DHT22;619;51.472;6.628;2023-12-28T06:31:48;17.80;75.80
1259;DHT22;619;51.472;6.628;2023-12-28T06:34:13;17.80;75.70
1259;DHT22;619;51.472;6.628;2023-12-28T06:36:39;17.80;75.70
1259;DHT22;619;51.472;6.628;2023-12-28T06:39:07;17.90;75.80
1259;DHT22;619;51.472;6.628;2023-12-28T06:41:35;17.80;75.50
1259;DHT22;619;51.472;6.628;2023-12-28T06:44:03;17.90;75.60
1259;DHT22;619;51.472;6.628;2023-12-28T06:46:31;17.80;75.40
1259;DHT22;619;51.472;6.628;2023-12-28T06:48:56;17.90;75.60
1259;DHT22;619;51.472;6.628;2023-12-28T06:51:26;17.90;75.40
1259;DHT22;619;51.472;6.628;2023-12-28T06:53:52;18.00;75.30
1259;DHT22;619;51.472;6.628;2023-12-28T06:56:20;18.00;75.20
1259;DHT22;619;51.472;6.628;2023-12-28T06:58:50;18.00;75.20
1259;DHT22;619;51.472;6.628;2023-12-28T07:01:16;18.00;75.10
1259;DHT22;619;51.472;6.628;2023-12-28T07:03:42;18.00;75.00
1259;DHT22;619;51.472;6.628;2023-12-28T07:06:08;18.00;74.80
1259;DHT22;619;51.472;6.628;2023-12-28T07:08:38;18.00;74.70
1259;DHT22;619;51.472;6.628;2023-12-28T07:11:04;18.00;74.60
1259;DHT22;619;51.472;6.628;2023-12-28T07:13:29;18.00;74.60
1259;DHT22;619;51.472;6.628;2023-12-28T07:15:57;18.00;74.60
1259;DHT22;619;51.472;6.628;2023-12-28T07:18:25;18.00;74.60
1259;DHT22;619;51.472;6.628;2023-12-28T07:20:51;18.00;74.50
1259;DHT22;619;51.472;6.628;2023-12-28T07:23:21;18.00;74.40
1259;DHT22;619;51.472;6.628;2023-12-28T07:25:47;18.00;74.50
1259;DHT22;619;51.472;6.628;2023-12-28T07:28:15;18.00;74.50
1259;DHT22;619;51.472;6.628;2023-12-28T07:30:41;18.00;74.50
1259;DHT22;619;51.472;6.628;2023-12-28T07:33:06;17.90;74.30
1259;DHT22;619;51.472;6.628;2023-12-28T07:35:32;18.00;74.40
1259;DHT22;619;51.472;6.628;2023-12-28T07:38:00;18.00;74.50
1259;DHT22;619;51.472;6.628;2023-12-28T07:40:25;18.00;74.50
1259;DHT22;619;51.472;6.628;2023-12-28T07:42:53;18.00;74.50
1259;DHT22;619;51.472;6.628;2023-12-28T07:45:19;18.00;74.40
1259;DHT22;619;51.472;6.628;2023-12-28T07:47:51;18.00;74.50
1259;DHT22;619;51.472;6.628;2023-12-28T07:50:18;18.00;74.50
1259;DHT22;619;51.472;6.628;2023-12-28T07:52:44;18.00;74.30
1259;DHT22;619;51.472;6.628;2023-12-28T07:55:10;18.00;74.40
1259;DHT22;619;51.472;6.628;2023-12-28T07:57:35;18.00;74.40
1259;DHT22;619;51.472;6.628;2023-12-28T08:00:02;18.00;74.40
1259;DHT22;619;51.472;6.628;2023-12-28T08:02:31;17.90;74.30
1259;DHT22;619;51.472;6.628;2023-12-28T08:04:59;17.90;74.50
1259;DHT22;619;51.472;6.628;2023-12-28T08:07:25;18.00;74.50
1259;DHT22;619;51.472;6.628;2023-12-28T08:09:53;18.00;74.40
1259;DHT22;619;51.472;6.628;2023-12-28T08:12:23;18.00;74.40
1259;DHT22;619;51.472;6.628;2023-12-28T08:14:52;18.00;74.30
1259;DHT22;619;51.472;6.628;2023-12-28T08:17:17;18.10;74.30
1259;DHT22;619;51.472;6.628;2023-12-28T08:19:43;18.20;74.30
1259;DHT22;619;51.472;6.628;2023-12-28T08:22:11;18.20;74.20
1259;DHT22;619;51.472;6.628;2023-12-28T08:24:36;18.10;74.00
1259;DHT22;619;51.472;6.628;2023-12-28T08:27:07;18.10;74.00
1259;DHT22;619;51.472;6.628;2023-12-28T08:29:34;18.10;73.90
1259;DHT22;619;51.472;6.628;2023-12-28T08:32:03;18.10;73.90
1259;DHT22;619;51.472;6.628;2023-12-28T08:34:36;18.10;73.80
1259;DHT22;619;51.472;6.628;2023-12-28T08:37:04;18.10;73.70
1259;DHT22;619;51.472;6.628;2023-12-28T08:39:32;18.10;73.70
1259;DHT22;619;51.472;6.628;2023-12-28T08:41:58;18.20;73.80
1259;DHT22;619;51.472;6.628;2023-12-28T08:44:28;18.30;73.80
1259;DHT22;619;51.472;6.628;2023-12-28T08:46:54;18.30;73.50
1259;DHT22;619;51.472;6.628;2023-12-28T08:49:19;18.30;73.40
1259;DHT22;619;51.472;6.628;2023-12-28T08:51:45;18.30;73.20
1259;DHT22;619;51.472;6.628;2023-12-28T08:54:11;18.40;73.20
1259;DHT22;619;51.472;6.628;2023-12-28T08:56:39;18.40;73.00
1259;DHT22;619;51.472;6.628;2023-12-28T08:59:10;18.30;72.90
1259;DHT22;619;51.472;6.628;2023-12-28T09:01:35;18.40;73.00
1259;DHT22;619;51.472;6.628;2023-12-28T09:04:05;18.40;73.00
1259;DHT22;619;51.472;6.628;2023-12-28T09:06:31;18.40;72.90
1259;DHT22;619;51.472;6.628;2023-12-28T09:09:03;18.50;73.00
1259;DHT22;619;51.472;6.628;2023-12-28T09:11:33;18.50;72.80
1259;DHT22;619;51.472;6.628;2023-12-28T09:13:59;18.50;72.70
1259;DHT22;619;51.472;6.628;2023-12-28T09:16:25;18.60;72.60
1259;DHT22;619;51.472;6.628;2023-12-28T09:18:50;18.60;72.40
1259;DHT22;619;51.472;6.628;2023-12-28T09:21:18;18.60;72.60
1259;DHT22;619;51.472;6.628;2023-12-28T09:23:44;18.50;72.60
1259;DHT22;619;51.472;6.628;2023-12-28T09:26:12;18.50;72.70
1259;DHT22;619;51.472;6.628;2023-12-28T09:28:40;18.60;72.70
1259;DHT22;619;51.472;6.628;2023-12-28T09:31:10;18.60;72.50
1259;DHT22;619;51.472;6.628;2023-12-28T09:33:36;18.60;72.40
1259;DHT22;619;51.472;6.628;2023-12-28T09:36:07;18.70;72.30
1259;DHT22;619;51.472;6.628;2023-12-28T09:38:39;18.60;72.10
1259;DHT22;619;51.472;6.628;2023-12-28T09:41:16;18.70;72.20
1259;DHT22;619;51.472;6.628;2023-12-28T09:43:50;18.70;72.00
1259;DHT22;619;51.472;6.628;2023-12-28T09:46:18;18.70;72.00
1259;DHT22;619;51.472;6.628;2023-12-28T09:48:44;18.70;71.60
1259;DHT22;619;51.472;6.628;2023-12-28T09:51:10;18.80;71.60
1259;DHT22;619;51.472;6.628;2023-12-28T09:53:38;18.80;71.30
1259;DHT22;619;51.472;6.628;2023-12-28T09:56:08;18.80;71.40
1259;DHT22;619;51.472;6.628;2023-12-28T09:58:35;18.90;71.30
1259;DHT22;619;51.472;6.628;2023-12-28T10:01:02;18.90;71.20
1259;DHT22;619;51.472;6.628;2023-12-28T10:03:30;18.90;71.10
1259;DHT22;619;51.472;6.628;2023-12-28T10:05:58;19.00;70.90
1259;DHT22;619;51.472;6.628;2023-12-28T10:08:24;19.00;70.80
1259;DHT22;619;51.472;6.628;2023-12-28T10:10:56;19.10;70.70
1259;DHT22;619;51.472;6.628;2023-12-28T10:13:25;19.10;70.40
1259;DHT22;619;51.472;6.628;2023-12-28T10:15:56;19.20;70.40
1259;DHT22;619;51.472;6.628;2023-12-28T10:18:26;19.20;70.20
1259;DHT22;619;51.472;6.628;2023-12-28T10:20:53;19.20;70.00
1259;DHT22;619;51.472;6.628;2023-12-28T10:23:23;19.10;69.70
1259;DHT22;619;51.472;6.628;2023-12-28T10:25:50;19.20;70.00
1259;DHT22;619;51.472;6.628;2023-12-28T10:28:18;19.40;70.00
1259;DHT22;619;51.472;6.628;2023-12-28T10:30:46;19.60;69.80
1259;DHT22;619;51.472;6.628;2023-12-28T10:33:13;20.10;68.80
1259;DHT22;619;51.472;6.628;2023-12-28T10:35:44;20.30;67.60
1259;DHT22;619;51.472;6.628;2023-12-28T10:38:16;20.20;67.40
1259;DHT22;619;51.472;6.628;2023-12-28T10:40:46;19.90;67.80
1259;DHT22;619;51.472;6.628;2023-12-28T10:43:16;19.70;68.40
1259;DHT22;619;51.472;6.628;2023-12-28T10:45:46;19.50;68.90
1259;DHT22;619;51.472;6.628;2023-12-28T10:48:13;19.20;69.20
1259;DHT22;619;51.472;6.628;2023-12-28T10:50:52;19.10;69.80
1259;DHT22;619;51.472;6.628;2023-12-28T10:56:36;18.90;70.50
1259;DHT22;619;51.472;6.628;2023-12-28T11:01:56;18.80;70.90
1259;DHT22;619;51.472;6.628;2023-12-28T11:04:40;18.80;71.10
1259;DHT22;619;51.472;6.628;2023-12-28T11:07:11;18.80;71.00
1259;DHT22;619;51.472;6.628;2023-12-28T11:09:43;18.80;71.10
1259;DHT22;619;51.472;6.628;2023-12-28T11:12:10;18.80;71.30
1259;DHT22;619;51.472;6.628;2023-12-28T11:14:43;18.70;71.30
1259;DHT22;619;51.472;6.628;2023-12-28T11:17:16;18.60;71.40
1259;DHT22;619;51.472;6.628;2023-12-28T11:19:42;18.60;71.70
1259;DHT22;619;51.472;6.628;2023-12-28T11:22:08;18.60;71.60
1259;DHT22;619;51.472;6.628;2023-12-28T11:24:34;18.60;71.80
1259;DHT22;619;51.472;6.628;2023-12-28T11:27:02;18.70;71.90
1259;DHT22;619;51.472;6.628;2023-12-28T11:29:32;18.70;71.90
1259;DHT22;619;51.472;6.628;2023-12-28T11:32:02;18.70;71.70
1259;DHT22;619;51.472;6.628;2023-12-28T11:34:34;18.80;71.70
1259;DHT22;619;51.472;6.628;2023-12-28T11:37:02;18.90;71.70
1259;DHT22;619;51.472;6.628;2023-12-28T11:39:41;18.90;71.30
1259;DHT22;619;51.472;6.628;2023-12-28T11:42:12;18.90;71.00
1259;DHT22;619;51.472;6.628;2023-12-28T11:44:44;19.10;71.20
1259;DHT22;619;51.472;6.628;2023-12-28T11:47:17;19.10;70.90
1259;DHT22;619;51.472;6.628;2023-12-28T11:49:48;19.00;71.00
1259;DHT22;619;51.472;6.628;2023-12-28T11:52:32;19.10;70.50
1259;DHT22;619;51.472;6.628;2023-12-28T11:54:59;19.20;70.50
1259;DHT22;619;51.472;6.628;2023-12-28T11:57:30;19.20;70.20
1259;DHT22;619;51.472;6.628;2023-12-28T12:00:00;19.30;70.00
1259;DHT22;619;51.472;6.628;2023-12-28T12:02:26;19.40;70.00
1259;DHT22;619;51.472;6.628;2023-12-28T12:04:54;19.50;69.90
1259;DHT22;619;51.472;6.628;2023-12-28T12:07:24;19.50;69.60
1259;DHT22;619;51.472;6.628;2023-12-28T12:09:58;19.50;69.50
1259;DHT22;619;51.472;6.628;2023-12-28T12:12:28;19.50;69.50
1259;DHT22;619;51.472;6.628;2023-12-28T12:14:54;19.60;69.40
1259;DHT22;619;51.472;6.628;2023-12-28T12:17:21;19.70;69.50
1259;DHT22;619;51.472;6.628;2023-12-28T12:19:47;19.70;69.20
1259;DHT22;619;51.472;6.628;2023-12-28T12:22:18;19.80;68.70
1259;DHT22;619;51.472;6.628;2023-12-28T12:24:48;19.80;68.70
1259;DHT22;619;51.472;6.628;2023-12-28T12:27:17;19.80;68.80
1259;DHT22;619;51.472;6.628;2023-12-28T12:29:45;19.90;68.70
1259;DHT22;619;51.472;6.628;2023-12-28T12:32:16;20.00;68.40
1259;DHT22;619;51.472;6.628;2023-12-28T12:34:44;20.00;67.80
1259;DHT22;619;51.472;6.628;2023-12-28T12:37:10;20.00;67.80
1259;DHT22;619;51.472;6.628;2023-12-28T12:39:35;20.10;67.70
1259;DHT22;619;51.472;6.628;2023-12-28T12:42:01;20.20;67.60
1259;DHT22;619;51.472;6.628;2023-12-28T12:44:28;20.30;67.00
1259;DHT22;619;51.472;6.628;2023-12-28T12:46:59;20.40;67.10
1259;DHT22;619;51.472;6.628;2023-12-28T12:49:25;20.60;67.10
1259;DHT22;619;51.472;6.628;2023-12-28T12:51:51;21.00;66.00
1259;DHT22;619;51.472;6.628;2023-12-28T12:54:17;21.20;65.00
1259;DHT22;619;51.472;6.628;2023-12-28T12:56:50;21.10;64.80
1259;DHT22;619;51.472;6.628;2023-12-28T12:59:18;20.90;65.20
1259;DHT22;619;51.472;6.628;2023-12-28T13:01:47;20.60;65.70
1259;DHT22;619;51.472;6.628;2023-12-28T13:04:17;20.30;66.30
1259;DHT22;619;51.472;6.628;2023-12-28T13:06:45;20.00;67.00
1259;DHT22;619;51.472;6.628;2023-12-28T13:09:11;19.80;67.60
1259;DHT22;619;51.472;6.628;2023-12-28T13:11:37;19.50;68.00
1259;DHT22;619;51.472;6.628;2023-12-28T13:14:05;19.50;68.60
1259;DHT22;619;51.472;6.628;2023-12-28T13:16:31;19.40;68.80
1259;DHT22;619;51.472;6.628;2023-12-28T13:18:56;19.20;68.80
1259;DHT22;619;51.472;6.628;2023-12-28T13:21:25;19.20;69.10
1259;DHT22;619;51.472;6.628;2023-12-28T13:23:53;19.10;69.30
1259;DHT22;619;51.472;6.628;2023-12-28T13:26:29;19.10;69.50
1259;DHT22;619;51.472;6.628;2023-12-28T13:28:55;19.10;69.60
1259;DHT22;619;51.472;6.628;2023-12-28T13:31:21;19.10;69.70
1259;DHT22;619;51.472;6.628;2023-12-28T13:33:50;19.10;69.80
1259;DHT22;619;51.472;6.628;2023-12-28T13:36:16;19.10;69.80
1259;DHT22;619;51.472;6.628;2023-12-28T13:38:42;19.10;69.80
1259;DHT22;619;51.472;6.628;2023-12-28T13:41:08;19.10;69.70
1259;DHT22;619;51.472;6.628;2023-12-28T13:43:36;19.10;69.80
1259;DHT22;619;51.472;6.628;2023-12-28T13:46:03;19.00;69.40
1259;DHT22;619;51.472;6.628;2023-12-28T13:48:31;19.00;69.40
1259;DHT22;619;51.472;6.628;2023-12-28T13:50:57;19.00;69.20
1259;DHT22;619;51.472;6.628;2023-12-28T13:53:27;19.00;69.30
1259;DHT22;619;51.472;6.628;2023-12-28T13:55:53;19.00;69.20
1259;DHT22;619;51.472;6.628;2023-12-28T13:58:20;18.90;69.30
1259;DHT22;619;51.472;6.628;2023-12-28T14:00:48;18.90;69.30
1259;DHT22;619;51.472;6.628;2023-12-28T14:03:16;18.90;69.20
1259;DHT22;619;51.472;6.628;2023-12-28T14:05:42;19.00;69.50
1259;DHT22;619;51.472;6.628;2023-12-28T14:08:12;19.00;69.60
1259;DHT22;619;51.472;6.628;2023-12-28T14:10:40;19.00;69.30
1259;DHT22;619;51.472;6.628;2023-12-28T14:13:08;18.90;69.20
1259;DHT22;619;51.472;6.628;2023-12-28T14:15:39;18.90;69.20
1259;DHT22;619;51.472;6.628;2023-12-28T14:18:09;18.90;69.40
1259;DHT22;619;51.472;6.628;2023-12-28T14:20:37;18.90;69.40
1259;DHT22;619;51.472;6.628;2023-12-28T14:23:03;18.90;69.20
1259;DHT22;619;51.472;6.628;2023-12-28T14:25:29;18.90;69.20
1259;DHT22;619;51.472;6.628;2023-12-28T14:27:55;18.90;69.20
1259;DHT22;619;51.472;6.628;2023-12-28T14:30:23;18.80;69.10
1259;DHT22;619;51.472;6.628;2023-12-28T14:32:49;18.80;69.10
1259;DHT22;619;51.472;6.628;2023-12-28T14:35:15;18.80;69.20
1259;DHT22;619;51.472;6.628;2023-12-28T14:37:44;18.80;69.20
1259;DHT22;619;51.472;6.628;2023-12-28T14:40:12;18.80;69.20
1259;DHT22;619;51.472;6.628;2023-12-28T14:42:38;18.80;69.20
1259;DHT22;619;51.472;6.628;2023-12-28T14:45:05;18.70;69.10
1259;DHT22;619;51.472;6.628;2023-12-28T14:47:31;18.70;69.10
1259;DHT22;619;51.472;6.628;2023-12-28T14:49:59;18.70;69.10
1259;DHT22;619;51.472;6.628;2023-12-28T14:52:25;18.70;69.10
1259;DHT22;619;51.472;6.628;2023-12-28T14:54:50;18.80;69.00
1259;DHT22;619;51.472;6.628;2023-12-28T14:57:17;18.80;69.10
1259;DHT22;619;51.472;6.628;2023-12-28T14:59:45;18.70;68.80
1259;DHT22;619;51.472;6.628;2023-12-28T15:02:15;18.70;68.80
1259;DHT22;619;51.472;6.628;2023-12-28T15:04:41;18.70;68.70
1259;DHT22;619;51.472;6.628;2023-12-28T15:07:06;18.70;68.60
1259;DHT22;619;51.472;6.628;2023-12-28T15:09:32;18.60;68.50
1259;DHT22;619;51.472;6.628;2023-12-28T15:12:03;18.60;68.70
1259;DHT22;619;51.472;6.628;2023-12-28T15:14:29;18.50;68.60
1259;DHT22;619;51.472;6.628;2023-12-28T15:16:59;18.50;68.80
1259;DHT22;619;51.472;6.628;2023-12-28T15:19:27;18.40;68.90
1259;DHT22;619;51.472;6.628;2023-12-28T15:21:55;18.30;69.00
1259;DHT22;619;51.472;6.628;2023-12-28T15:24:24;18.30;69.40
1259;DHT22;619;51.472;6.628;2023-12-28T15:26:52;18.30;69.50
1259;DHT22;619;51.472;6.628;2023-12-28T15:29:20;18.30;69.50
1259;DHT22;619;51.472;6.628;2023-12-28T15:31:48;18.30;69.50
1259;DHT22;619;51.472;6.628;2023-12-28T15:34:14;18.30;69.40
1259;DHT22;619;51.472;6.628;2023-12-28T15:36:41;18.30;69.50
1259;DHT22;619;51.472;6.628;2023-12-28T15:39:07;18.30;69.50
1259;DHT22;619;51.472;6.628;2023-12-28T15:41:36;18.30;69.50
1259;DHT22;619;51.472;6.628;2023-12-28T15:44:04;18.20;69.50
1259;DHT22;619;51.472;6.628;2023-12-28T15:46:30;18.30;69.80
1259;DHT22;619;51.472;6.628;2023-12-28T15:48:55;18.20;69.70
1259;DHT22;619;51.472;6.628;2023-12-28T15:51:21;18.20;69.60
1259;DHT22;619;51.472;6.628;2023-12-28T15:53:49;18.20;69.70
1259;DHT22;619;51.472;6.628;2023-12-28T15:56:17;18.20;69.80
1259;DHT22;619;51.472;6.628;2023-12-28T15:58:42;18.20;69.90
1259;DHT22;619;51.472;6.628;2023-12-28T16:01:10;18.20;69.80
1259;DHT22;619;51.472;6.628;2023-12-28T16:03:36;18.20;69.70
1259;DHT22;619;51.472;6.628;2023-12-28T16:06:01;18.10;69.70
1259;DHT22;619;51.472;6.628;2023-12-28T16:08:30;18.10;70.40
1259;DHT22;619;51.472;6.628;2023-12-28T16:10:55;18.10;69.90
1259;DHT22;619;51.472;6.628;2023-12-28T16:13:25;18.10;69.90
1259;DHT22;619;51.472;6.628;2023-12-28T16:15:53;18.10;69.80
1259;DHT22;619;51.472;6.628;2023-12-28T16:18:25;18.10;69.80
1259;DHT22;619;51.472;6.628;2023-12-28T16:20:50;18.10;69.80
1259;DHT22;619;51.472;6.628;2023-12-28T16:23:19;18.10;69.60
1259;DHT22;619;51.472;6.628;2023-12-28T16:25:47;18.20;69.60
1259;DHT22;619;51.472;6.628;2023-12-28T16:28:13;18.20;69.50
1259;DHT22;619;51.472;6.628;2023-12-28T16:30:41;18.20;69.50
1259;DHT22;619;51.472;6.628;2023-12-28T16:33:09;18.10;69.50
1259;DHT22;619;51.472;6.628;2023-12-28T16:35:41;18.20;69.50